createdAt,value
2023-05-01T00:00:29.976Z,10.78
2023-05-01T00:03:31.583Z,10.87
2023-05-01T00:06:33.489Z,10.93
2023-05-01T00:09:34.927Z,10.83
2023-05-01T00:12:36.261Z,10.86
2023-05-01T00:15:41.020Z,10.79
2023-05-01T00:18:42.381Z,10.76
2023-05-01T00:21:48.428Z,10.68
2023-05-01T00:24:50.234Z,10.68
2023-05-01T00:27:51.721Z,10.74
2023-05-01T00:30:53.114Z,10.54
2023-05-01T00:33:54.617Z,10.61
2023-05-01T00:36:56.102Z,10.62
2023-05-01T00:39:57.690Z,10.42
2023-05-01T00:42:59.359Z,10.59
2023-05-01T00:46:01.648Z,10.50
2023-05-01T00:49:04.038Z,10.15
2023-05-01T00:52:05.410Z,10.31
2023-05-01T00:55:07.681Z,9.94
2023-05-01T00:58:10.811Z,9.76
2023-05-01T01:01:12.820Z,9.71
2023-05-01T01:04:14.351Z,9.96
2023-05-01T01:07:41.047Z,9.81
2023-05-01T01:10:58.717Z,9.73
2023-05-01T01:14:08.905Z,9.95
2023-05-01T01:17:17.186Z,9.87
2023-05-01T01:20:35.990Z,9.33
2023-05-01T01:23:52.536Z,9.43
2023-05-01T01:27:13.225Z,9.20
2023-05-01T01:30:36.621Z,9.47
2023-05-01T01:33:51.581Z,9.46
2023-05-01T01:37:04.694Z,9.62
2023-05-01T01:40:13.950Z,9.37
2023-05-01T01:43:18.698Z,9.47
2023-05-01T01:46:21.979Z,9.04
2023-05-01T01:49:26.346Z,9.38
2023-05-01T01:52:30.217Z,9.71
2023-05-01T01:55:35.012Z,9.15
2023-05-01T01:58:38.706Z,9.20
2023-05-01T02:01:41.978Z,9.06
2023-05-01T02:04:45.332Z,9.04
2023-05-01T02:07:49.269Z,8.97
2023-05-01T02:10:51.133Z,9.15
2023-05-01T02:13:55.060Z,9.32
2023-05-01T02:16:58.689Z,9.20
2023-05-01T02:20:00.913Z,9.28
2023-05-01T02:23:04.768Z,9.30
2023-05-01T02:26:08.272Z,8.96
2023-05-01T02:29:10.430Z,9.36
2023-05-01T02:32:12.372Z,9.16
2023-05-01T02:35:13.810Z,9.32
2023-05-01T02:38:16.160Z,9.11
2023-05-01T02:41:21.207Z,9.15
2023-05-01T02:44:24.172Z,9.17
2023-05-01T02:47:28.852Z,9.32
2023-05-01T02:50:31.234Z,9.32
2023-05-01T02:53:33.471Z,9.11
2023-05-01T02:56:35.484Z,9.17
2023-05-01T02:59:37.270Z,9.26
2023-05-01T03:02:38.652Z,9.20
2023-05-01T03:05:41.026Z,8.99
2023-05-01T03:08:42.898Z,9.17
2023-05-01T03:11:44.238Z,9.12
2023-05-01T03:14:45.582Z,9.37
2023-05-01T03:17:46.974Z,9.20
2023-05-01T03:20:53.481Z,9.24
2023-05-01T03:23:54.908Z,9.22
2023-05-01T03:26:56.547Z,9.22
2023-05-01T03:29:58.073Z,9.13
2023-05-01T03:32:59.594Z,8.88
2023-05-01T03:36:04.011Z,8.93
2023-05-01T03:39:05.634Z,8.98
2023-05-01T03:42:07.155Z,9.05
2023-05-01T03:45:09.297Z,8.82
2023-05-01T03:48:10.723Z,8.78
2023-05-01T03:51:12.164Z,8.66
2023-05-01T03:54:13.535Z,9.00
2023-05-01T03:57:14.970Z,8.78
2023-05-01T04:00:16.579Z,8.98
2023-05-01T04:03:18.031Z,9.06
2023-05-01T04:06:19.716Z,8.89
2023-05-01T04:09:21.101Z,8.87
2023-05-01T04:12:22.435Z,8.84
2023-05-01T04:15:23.848Z,8.87
2023-05-01T04:18:25.244Z,8.95
2023-05-01T04:21:26.603Z,8.79
2023-05-01T04:24:27.976Z,8.63
2023-05-01T04:27:29.637Z,8.92
2023-05-01T04:30:31.543Z,8.90
2023-05-01T04:33:33.038Z,8.72
2023-05-01T04:36:34.373Z,8.97
2023-05-01T04:39:36.404Z,9.02
2023-05-01T04:42:37.803Z,8.95
2023-05-01T04:45:39.143Z,9.00
2023-05-01T04:48:40.834Z,8.91
2023-05-01T04:51:42.180Z,8.96
2023-05-01T04:54:43.529Z,8.31
2023-05-01T04:57:44.866Z,8.83
2023-05-01T05:00:46.246Z,8.80
2023-05-01T05:03:50.026Z,8.66
2023-05-01T05:06:51.795Z,8.87
2023-05-01T05:09:53.324Z,8.89
2023-05-01T05:12:54.753Z,8.88
2023-05-01T05:15:56.158Z,9.02
2023-05-01T05:18:57.904Z,8.92
2023-05-01T05:22:01.579Z,9.09
2023-05-01T05:25:04.528Z,9.20
2023-05-01T05:28:05.929Z,9.34
2023-05-01T05:31:07.369Z,9.25
2023-05-01T05:34:08.757Z,9.42
2023-05-01T05:37:10.108Z,9.23
2023-05-01T05:40:11.943Z,9.14
2023-05-01T05:43:13.289Z,9.32
2023-05-01T05:46:14.760Z,9.20
2023-05-01T05:49:16.139Z,9.27
2023-05-01T05:52:17.559Z,9.43
2023-05-01T05:55:18.911Z,9.61
2023-05-01T05:58:20.296Z,9.61
2023-05-01T06:01:21.630Z,9.61
2023-05-01T06:04:22.984Z,9.73
2023-05-01T06:07:25.502Z,9.67
2023-05-01T06:10:26.829Z,9.75
2023-05-01T06:13:28.219Z,9.75
2023-05-01T06:16:29.740Z,9.69
2023-05-01T06:19:31.262Z,9.77
2023-05-01T06:22:32.652Z,9.83
2023-05-01T06:25:34.010Z,10.00
2023-05-01T06:28:35.472Z,10.07
2023-05-01T06:31:36.876Z,10.22
2023-05-01T06:34:38.307Z,10.23
2023-05-01T06:37:39.731Z,10.15
2023-05-01T06:40:41.601Z,10.37
2023-05-01T06:43:42.993Z,10.32
2023-05-01T06:46:44.374Z,10.48
2023-05-01T06:49:45.842Z,10.60
2023-05-01T06:52:47.226Z,10.74
2023-05-01T06:55:48.587Z,10.84
2023-05-01T06:58:50.092Z,10.76
2023-05-01T07:01:52.120Z,10.80
2023-05-01T07:04:53.506Z,10.74
2023-05-01T07:08:01.378Z,10.88
2023-05-01T07:11:03.119Z,11.12
2023-05-01T07:14:04.476Z,11.01
2023-05-01T07:17:06.716Z,11.06
2023-05-01T07:20:08.601Z,11.29
2023-05-01T07:23:09.952Z,11.24
2023-05-01T07:26:11.299Z,11.09
2023-05-01T07:29:13.237Z,11.18
2023-05-01T07:32:14.780Z,11.52
2023-05-01T07:35:16.250Z,11.73
2023-05-01T07:38:18.144Z,11.70
2023-05-01T07:41:19.479Z,11.92
2023-05-01T07:44:20.939Z,11.80
2023-05-01T07:47:22.367Z,12.08
2023-05-01T07:50:24.960Z,12.08
2023-05-01T07:53:26.705Z,12.06
2023-05-01T07:56:28.292Z,12.36
2023-05-01T07:59:29.799Z,12.32
2023-05-01T08:02:31.441Z,12.49
2023-05-01T08:05:32.911Z,12.57
2023-05-01T08:08:34.348Z,12.62
2023-05-01T08:11:35.790Z,12.79
2023-05-01T08:14:37.145Z,12.69
2023-05-01T08:17:38.624Z,12.89
2023-05-01T08:20:40.023Z,12.86
2023-05-01T08:23:41.362Z,12.70
2023-05-01T08:26:42.710Z,13.04
2023-05-01T08:29:44.445Z,13.30
2023-05-01T08:32:45.933Z,13.29
2023-05-01T08:35:48.477Z,13.18
2023-05-01T08:38:49.835Z,13.46
2023-05-01T08:41:52.628Z,13.52
2023-05-01T08:44:59.206Z,13.67
2023-05-01T08:48:01.774Z,13.60
2023-05-01T08:51:04.107Z,13.87
2023-05-01T08:54:06.549Z,13.64
2023-05-01T08:57:10.664Z,13.96
2023-05-01T09:00:18.344Z,14.00
2023-05-01T09:03:21.238Z,14.05
2023-05-01T09:06:23.232Z,14.28
2023-05-01T09:09:24.642Z,14.24
2023-05-01T09:12:26.738Z,13.87
2023-05-01T09:15:30.077Z,13.70
2023-05-01T09:18:31.519Z,14.28
2023-05-01T09:21:32.889Z,14.13
2023-05-01T09:24:34.557Z,14.14
2023-05-01T09:27:36.822Z,14.06
2023-05-01T09:30:39.107Z,14.08
2023-05-01T09:33:57.930Z,14.21
2023-05-01T09:36:59.282Z,13.99
2023-05-01T09:40:26.769Z,14.05
2023-05-01T09:43:29.515Z,14.00
2023-05-01T09:46:42.102Z,14.23
2023-05-01T09:49:49.945Z,14.27
2023-05-01T09:52:52.659Z,14.23
2023-05-01T09:56:01.641Z,14.04
2023-05-01T09:59:20.191Z,13.85
2023-05-01T10:02:29.748Z,14.32
2023-05-01T10:05:43.092Z,14.45
2023-05-01T10:08:49.015Z,14.47
2023-05-01T10:11:55.735Z,14.45
2023-05-01T10:14:57.842Z,14.56
2023-05-01T10:17:59.499Z,14.55
2023-05-01T10:21:00.975Z,14.32
2023-05-01T10:24:03.915Z,14.62
2023-05-01T10:27:06.994Z,14.07
2023-05-01T10:30:09.906Z,14.27
2023-05-01T10:33:13.724Z,14.36
2023-05-01T10:36:23.170Z,14.06
2023-05-01T10:39:32.295Z,13.95
2023-05-01T10:42:33.859Z,13.90
2023-05-01T10:45:36.300Z,14.02
2023-05-01T10:48:37.595Z,13.87
2023-05-01T10:52:04.127Z,13.35
2023-05-01T10:55:34.501Z,13.09
2023-05-01T10:58:38.732Z,12.71
2023-05-01T11:01:48.588Z,12.86
2023-05-01T11:04:51.924Z,12.87
2023-05-01T11:08:33.755Z,12.83
2023-05-01T11:11:35.403Z,12.07
2023-05-01T11:15:02.421Z,12.31
2023-05-01T11:18:05.991Z,12.28
2023-05-01T11:21:09.003Z,12.18
2023-05-01T11:24:10.579Z,12.04
2023-05-01T11:27:13.829Z,11.91
2023-05-01T11:30:16.165Z,12.07
2023-05-01T11:33:23.172Z,12.20
2023-05-01T11:36:24.998Z,12.01
2023-05-01T11:39:26.392Z,12.07
2023-05-01T11:42:27.828Z,12.26
2023-05-01T11:45:30.109Z,11.87
2023-05-01T11:48:31.873Z,12.02
2023-05-01T11:51:33.333Z,11.68
2023-05-01T11:54:47.475Z,11.78
2023-05-01T11:57:53.367Z,11.74
2023-05-01T12:00:54.787Z,11.70
2023-05-01T12:03:56.210Z,12.05
2023-05-01T12:06:58.056Z,12.24
2023-05-01T12:09:59.692Z,12.10
2023-05-01T12:13:02.927Z,12.06
2023-05-01T12:16:06.030Z,11.88
2023-05-01T12:19:08.087Z,11.83
2023-05-01T12:22:09.574Z,11.99
2023-05-01T12:25:11.008Z,12.05
2023-05-01T12:28:15.462Z,12.01
2023-05-01T12:31:17.170Z,11.95
2023-05-01T12:34:18.824Z,11.91
2023-05-01T12:37:20.384Z,11.85
2023-05-01T12:40:22.937Z,11.92
2023-05-01T12:43:32.721Z,11.96
2023-05-01T12:46:34.194Z,11.82
2023-05-01T12:49:37.699Z,12.27
2023-05-01T12:52:39.148Z,12.40
2023-05-01T12:55:47.693Z,12.22
2023-05-01T12:58:49.323Z,12.04
2023-05-01T13:02:03.410Z,12.39
2023-05-01T13:05:09.039Z,12.35
2023-05-01T13:08:10.457Z,11.86
2023-05-01T13:11:14.184Z,12.11
2023-05-01T13:14:16.431Z,12.05
2023-05-01T13:17:26.825Z,11.87
2023-05-01T13:20:28.431Z,11.91
2023-05-01T13:23:30.121Z,11.72
2023-05-01T13:26:35.160Z,11.95
2023-05-01T13:29:36.640Z,12.16
2023-05-01T13:32:41.700Z,11.72
2023-05-01T13:35:43.213Z,11.83
2023-05-01T13:38:50.937Z,12.09
2023-05-01T13:41:53.534Z,11.99
2023-05-01T13:44:57.114Z,12.25
2023-05-01T13:47:59.083Z,12.19
2023-05-01T13:51:00.660Z,12.35
2023-05-01T13:54:03.303Z,12.20
2023-05-01T13:57:05.135Z,11.62
2023-05-01T14:00:09.015Z,11.33
2023-05-01T14:03:10.926Z,11.65
2023-05-01T14:06:14.741Z,11.83
2023-05-01T14:09:19.389Z,11.73
2023-05-01T14:12:27.079Z,11.88
2023-05-01T14:15:29.440Z,11.86
2023-05-01T14:18:30.927Z,11.92
2023-05-01T14:21:38.797Z,12.03
2023-05-01T14:24:41.209Z,11.98
2023-05-01T14:27:42.560Z,11.41
2023-05-01T14:30:44.135Z,11.68
2023-05-01T14:33:45.562Z,11.45
2023-05-01T14:36:46.969Z,11.70
2023-05-01T14:39:48.347Z,11.85
2023-05-01T14:42:50.581Z,11.95
2023-05-01T14:45:52.322Z,11.80
2023-05-01T14:48:53.862Z,11.67
2023-05-01T14:51:55.318Z,11.98
2023-05-01T14:54:56.850Z,11.69
2023-05-01T14:57:58.324Z,11.83
2023-05-01T15:01:00.266Z,11.89
2023-05-01T15:04:03.631Z,11.86
2023-05-01T15:07:05.415Z,11.91
2023-05-01T15:10:07.142Z,12.08
2023-05-01T15:13:09.060Z,12.05
2023-05-01T15:16:11.067Z,11.98
2023-05-01T15:19:12.543Z,11.85
2023-05-01T15:22:13.954Z,11.64
2023-05-01T15:25:16.329Z,11.95
2023-05-01T15:28:18.037Z,12.12
2023-05-01T15:31:19.467Z,12.11
2023-05-01T15:34:21.029Z,12.20
2023-05-01T15:37:25.686Z,12.26
2023-05-01T15:40:27.101Z,12.39
2023-05-01T15:43:28.493Z,12.35
2023-05-01T15:46:29.922Z,12.24
2023-05-01T15:49:31.353Z,12.60
2023-05-01T15:52:32.706Z,12.88
2023-05-01T15:55:34.670Z,12.81
2023-05-01T15:58:36.102Z,12.47
2023-05-01T16:01:37.516Z,12.31
2023-05-01T16:04:39.031Z,12.50
2023-05-01T16:07:40.452Z,12.59
2023-05-01T16:10:41.946Z,12.72
2023-05-01T16:13:43.318Z,12.55
2023-05-01T16:16:44.753Z,12.40
2023-05-01T16:19:46.977Z,12.44
2023-05-01T16:22:48.413Z,12.16
2023-05-01T16:25:49.788Z,12.36
2023-05-01T16:28:51.832Z,12.53
